Flynn, Texas
Current Conditions -  °F | °C
As of 6:15 PM on Sunday 25 Jan 2015 (Local Time) from KCFD Reporting Station
Clear Clear  
Wind Chill: 62°   Ceiling: Unl
Heat Index: 62°   Visibility: 10mi
Dew Point: 26°   Wind: 13mph
Humidity: 26%   Direction: 310°NW
Pressure: 30.1"   Gusts: 16mph
Location:  31.15°N, 96.12°W
Report Text: KCFD 260015Z AUTO 31011G14KT 10SM CLR 16/M03 A3010 RMK AO2 T01641034
Loading
Personal Weather Stations






























Interactive Weather Map New forecast layout! Learn more

10-Day Weather Forecast

Advertisements
Track Severe Weather on mobile